Accueil
METAR-TAF:

METAR-TAF

Aéroports :

Aéroport de Paris-Le Bourget

Paris, France

latitude: 48-58N, longitude: 002-27E, altitude: 66 m

Observation

Le bulletin a été fait il y a 34 minutes, à 11:30 UTC
Vent 3 kt de direction variable
Température 13°C
Humidité 47%
Pression 1027 hPa
Visibilité 10 km ou plus
pas de nuages en-dessous de 1500 mètres et pas de cumulonimbus.

METAR: LFPB 161130Z AUTO VRB03KT CAVOK 13/02 Q1027 NOSIG

Heure: 13:04 (12:04 UTC)

Prévision

Le bulletin a été fait il y a 1 heure et 4 minutes, à 11:00 UTC
Prévision valable du 16 à 12 UTC au 17 à 12 UTC
Vent 5 kt de sud
Visibilité 10 km ou plus
pas de nuages en-dessous de 1500 mètres et pas de cumulonimbus.
Probabilité 40% :
Temporairement
du 17 à 03 UTC au 17 à 06 UTC
Visibilité: 4000 m
brume

TAF: LFPB 161100Z 1612/1712 19005KT CAVOK PROB40 TEMPO 1703/1706 4000 BR

Observations et prévisions météorologiques de plus de 4000 aéroports (messages METAR et TAF).

Les stations disponibles sont représentées par des disques jaunes et rouges sur la carte.

Passer la souris dessus pour voir le nom de la station.

Cliquer dessus pour voir les observations et prévisions météorologiques.

Pour changer de carte: cliquez sur les boutons verts avec une croix noire pour zoomer, sur le bouton vert avec un tiret pour effectuer un zoom arrière, ou sur les flèches vertes pour les cartes adjacentes.


METAR-TAF: